• Join FlightAware (Why Join?)
  • Login
  • US Flag 
12:24PM EDT


 

Airport Tracker/Info


-or-


 

Live Flight TrackerFlight Track Log ✈ ASQ5685 ✈ 03-May-2013 ✈ KATL - KIAD

Flight Track Log - Related Links

Times and Time Zones

All times are in EDT time to prevent confusion due to time zone crossing. See the ASQ5685 flight status page for this flight to view local times or setup timezone preferences in your user account.

Time Position Orientation Groundspeed Altitude Reporting Facility
EDT Latitude Longitude Course Direction KTS MPH feet Rate Location/Type
09:21AM 33.6333 -84.3833 99° East 147 169 2,700  Level Atlanta TRACON
09:23AM 33.6314 -84.2458 91° East 308 354 6,900 2,280 Climbing Atlanta Center
09:24AM 33.8398 -84.1867 73° East  Level Estimated
09:24AM 33.6336 -84.1636 88° East 259 298 9,600  Level Atlanta Center
09:25AM 33.9073 -84.1060 54° Northeast  Level Estimated
09:25AM 33.6481 -84.0789 78° East 259 298 11,300  Level Atlanta Center
09:26AM 33.8932 -83.9927 99° East  Level FlightAware Approximate
09:26AM 33.7108 -84.0014 46° Northeast 290 334 12,500  Level Atlanta Center
09:27AM 33.8789 -83.8793 99° East  Level FlightAware Approximate
09:27AM 33.7753 -83.9189 47° Northeast 320 368 13,700  Level Atlanta Center
09:28AM 33.8419 -83.8286 48° Northeast 344 396 14,800 1,020 Climbing Atlanta Center
09:29AM 33.9128 -83.7383 47° Northeast 358 412 15,800 960 Climbing Atlanta Center
09:30AM 33.9772 -83.6406 52° Northeast 366 421 16,800 900 Climbing Atlanta Center
09:31AM 34.0394 -83.5450 52° Northeast 366 421 17,600 660 Climbing Atlanta Center
09:32AM 34.1017 -83.4442 53° Northeast 372 428 18,200 600 Climbing Atlanta Center
09:33AM 34.1617 -83.3533 51° Northeast 372 428 18,800 660 Climbing Atlanta Center
09:34AM 34.2258 -83.2450 54° Northeast 388 447 19,600 660 Climbing Atlanta Center
09:35AM 34.2939 -83.1386 52° Northeast 393 452 20,200 600 Climbing Atlanta Center
09:36AM 34.3619 -83.0272 53° Northeast 393 452 20,800 600 Climbing Atlanta Center
09:37AM 34.4297 -82.9156 54° Northeast 398 458 21,400 600 Climbing Atlanta Center
09:38AM 34.4978 -82.8039 53° Northeast 411 473 22,000 600 Climbing Atlanta Center
09:39AM 34.5675 -82.6942 52° Northeast 416 479 22,600 600 Climbing Atlanta Center
09:40AM 34.6411 -82.5744 53° Northeast 410 472 23,300 600 Climbing Atlanta Center
09:41AM 34.7108 -82.4619 53° Northeast 404 465 23,800 480 Climbing Atlanta Center
09:42AM 34.7803 -82.3494 53° Northeast 415 478 24,300 480 Climbing Atlanta Center
09:43AM 34.8494 -82.2317 54° Northeast 415 478 24,800 300 Climbing Atlanta Center
09:44AM 34.9044 -82.1392 54° Northeast 420 483 25,000 60 Climbing Atlanta Center
09:45AM 34.9858 -82.0131 52° Northeast 420 483 25,000  Level Atlanta Center
09:46AM 35.0569 -81.8897 55° Northeast 436 502 25,000  Level Atlanta Center
09:47AM 35.1233 -81.7611 58° Northeast 441 507 25,000  Level Atlanta Center
09:48AM 35.1878 -81.6372 57° Northeast 441 507 25,000  Level Atlanta Center
09:49AM 35.2561 -81.5081 57° Northeast 431 496 25,000  Level Atlanta Center
09:50AM 35.3164 -81.3942 57° Northeast 405 466 25,000  Level Atlanta Center
09:51AM 35.3722 -81.2856 58° Northeast 385 443 25,000  Level Atlanta Center
09:52AM 35.4303 -81.1739 57° Northeast 385 443 25,000  Level Atlanta Center
09:53AM 35.4861 -81.0647 58° Northeast 385 443 25,000  Level Atlanta Center
09:54AM 35.5439 -80.9556 57° Northeast 380 437 25,000  Level Atlanta Center
09:55AM 35.6017 -80.8461 57° Northeast 380 437 25,000  Level Atlanta Center
09:56AM 35.6592 -80.7339 58° Northeast 380 437 25,000  Level Atlanta Center
09:57AM 35.7167 -80.6242 57° Northeast 380 437 25,000  Level Atlanta Center
09:58AM 35.7719 -80.5144 58° Northeast 380 437 25,000  Level Atlanta Center
09:59AM 35.8292 -80.4017 58° Northeast 380 437 25,000  Level Atlanta Center
10:02AM 35.9633 -80.1394 58° Northeast 378 435 25,000  Level Washington Center
10:03AM 36.0194 -80.0322 57° Northeast 368 423 25,000  Level Washington Center
10:04AM 36.0797 -79.9225 56° Northeast 368 423 25,000  Level Washington Center
10:05AM 36.1378 -79.8178 56° Northeast 378 435 25,000  Level Washington Center
10:06AM 36.2000 -79.7053 56° Northeast 393 452 25,000  Level Washington Center
10:07AM 36.2622 -79.5978 54° Northeast 386 444 25,000  Level Washington Center
10:08AM 36.3244 -79.4850 56° Northeast 386 444 25,000  Level Washington Center
10:09AM 36.3864 -79.3744 55° Northeast 391 450 25,000  Level Washington Center
10:10AM 36.4483 -79.2639 55° Northeast 391 450 25,000  Level Washington Center
10:11AM 36.5081 -79.1503 57° Northeast 391 450 25,000  Level Washington Center
10:12AM 36.5736 -79.0447 52° Northeast 391 450 25,000  Level Washington Center
10:13AM 36.6353 -78.9311 56° Northeast 391 450 25,000  Level Washington Center
10:14AM 36.6903 -78.8297 56° Northeast 396 456 25,000 -60 Level Washington Center
10:15AM 36.7494 -78.7181 57° Northeast 396 456 24,900 -420 Descending Washington Center
10:16AM 36.8175 -78.5911 56° Northeast 391 450 24,200 -480 Descending Washington Center
10:17AM 36.8828 -78.4769 54° Northeast 391 450 24,000 -120 Descending Washington Center
10:18AM 36.9561 -78.3781 47° Northeast 391 450 24,000 -120 Level Washington Center
10:19AM 37.0372 -78.3056 36° Northeast 385 443 23,800 -360 Descending Washington Center
10:20AM 37.1267 -78.2203 37° Northeast 397 457 23,300 -540 Descending Washington Center
10:21AM 37.2244 -78.1272 37° Northeast 402 463 22,800 -540 Descending Washington Center
10:22AM 37.3119 -78.0411 38° Northeast 402 463 22,300 -420 Descending Washington Center
10:23AM 37.3992 -77.9550 38° Northeast 402 463 22,000 -180 Descending Washington Center
10:24AM 37.4883 -77.8689 37° Northeast 402 463 22,000  Level Washington Center
10:25AM 37.5858 -77.7958 31° Northeast 402 463 22,000 -240 Level Washington Center
10:26AM 37.6889 -77.7358 25° Northeast 402 463 21,600 -1,380 Descending Washington Center
10:27AM 37.7881 -77.6756 26° Northeast 396 456 19,300 -2,220 Descending Washington Center
10:28AM 37.8828 -77.6228 24° Northeast 378 435 17,200 -2,400 Descending Washington Center
10:29AM 37.9714 -77.5700 25° Northeast 365 420 14,600 -2,640 Descending Washington Center
10:30AM 38.0469 -77.5297 23° Northeast 338 389 12,100 -2,340 Descending Washington Center
10:31AM 38.1292 -77.4817 25° Northeast 333 383 10,000 -1,080 Descending Washington Center
10:32AM 38.2008 -77.4386 25° Northeast 304 350 10,000  Level Washington Center
10:33AM 38.2703 -77.3953 26° Northeast 283 326 10,000  Level Washington Center
10:34AM 38.3417 -77.3600 21° North 278 320 10,000 -840 Level Washington Center
10:35AM 38.4208 -77.3592 360° North 272 313 8,400 -1,800 Descending Washington Center
10:36AM 38.4981 -77.3639 357° North 272 313 6,500 -1,800 Descending Washington Center
10:37AM 38.5708 -77.3656 359° North 272 313 4,900 -1,080 Descending Washington Center
10:37AM 38.6333 -77.3667 359° North 273 314 4,700 -420 Descending Potomac TRACON
10:38AM 38.7167 -77.3667 360° North 268 308 4,200 -360 Descending Potomac TRACON
10:39AM 38.7833 -77.3500 11° North 265 305 4,000 -120 Descending Potomac TRACON
10:40AM 38.8500 -77.3500 360° North 263 303 4,000 -300 Level Potomac TRACON
10:41AM 38.9167 -77.3500 360° North 254 292 3,500 -600 Descending Potomac TRACON
10:42AM 38.9833 -77.3500 360° North 205 236 2,800 -720 Descending Potomac TRACON
10:43AM 39.0167 -77.4000 311° West 193 222 2,100 -720 Descending Potomac TRACON